KPBF/PBF METAR and TAF weather

Enter ICAO airport designator
Station Type Date Time Source
KPBF METAR 2020/09/25 17:53 UTC NOAA

KPBF 251753Z AUTO 36004KT 10SM OVC028 20/16 A3004 RMK AO2 SLP169 T02000156 10200 20178 58001


Station Type Date Time Source
KPBF Decoded METAR 2020/09/25 17:53 UTC NOAA

PINE BLUFF GRIDER FIELD, AR, United States (KPBF) 34-11N 091-56W 62M
Sep 25, 2020 - 01:53 PM EDT / 2020.09.25 1753 UTC
Wind: from the N (360 degrees) at 5 MPH (4 KT):0
Visibility: 10 mile(s):0
Sky conditions: overcast
Temperature: 68.0 F (20.0 C)
Dew Point: 60.1 F (15.6 C)
Relative Humidity: 75%
Pressure (altimeter): 30.04 in. Hg (1017 hPa)
Pressure tendency: 0.00 inches (0.1 hPa) lower than three hours ago
ob: KPBF 251753Z AUTO 36004KT 10SM OVC028 20/16 A3004 RMK AO2 SLP169 T02000156 10200 20178 58001
cycle: 18

Station Type Date Time Source
KPBF TAF 2020/09/25 18:30 UTC NOAA

TAF KPBF 251728Z 2518/2618 VRB05KT P6SM BKN015 OVC021
FM251900 VRB05KT P6SM BKN023
TEMPO 2519/2521 SCT023
FM252100 VRB04KT P6SM SCT030
FM260000 VRB03KT P6SM SKC
TEMPO 2610/2613 4SM BR
FM261500 19006KT P6SM SCT250

Example: see airport list